Time;durP1;ratioP1;P1;durP2;ratioP2;P2;SDS_P1;SDS_P2;PMS_P1;PMS_P2;Temp;Humidity;BMP_temperature;BMP_pressure;BME280_temperature;BME280_humidity;BME280_pressure;Samples;Min_cycle;Max_cycle;Signal;HPM_P1;HPM_P2
2024/02/12 00:00:19;;;;;;;;;;;;;;;15.67;50.72;99998.25;4903526;29;1059;-53
2024/02/12 00:02:45;;;;;;;;;;;;;;;15.58;50.46;100004.31;4900125;29;1345;-54
2024/02/12 00:05:11;;;;;;;;;;;;;;;15.41;50.97;99985.31;4903838;29;1138;-50
2024/02/12 00:07:36;;;;;;;;;;;;;;;15.32;51.03;99993.97;4892706;29;1038;-52
2024/02/12 00:10:05;;;;;;;;;;;;;;;16.09;50.14;99986.06;4892250;29;1093;-56
2024/02/12 00:12:34;;;;;;;;;;;;;;;17.28;47.25;99992.03;4903571;29;1117;-56
2024/02/12 00:15:02;;;;;;;;;;;;;;;16.75;48.03;99976.97;4903763;29;1304;-56
2024/02/12 00:17:30;;;;;;;;;;;;;;;16.18;49.64;99984.47;4903437;29;1985;-56
2024/02/12 00:19:55;;;;;;;;;;;;;;;15.84;50.43;99985.41;4891634;29;2642;-52
2024/02/12 00:22:23;;;;;;;;;;;;;;;15.66;50.42;99984.13;4899787;29;1265;-48
2024/02/12 00:24:52;;;;;;;;;;;;;;;15.51;50.69;99964.19;4903977;29;1078;-50
2024/02/12 00:27:17;;;;;;;;;;;;;;;15.40;51.04;99970.34;4891765;29;1054;-52
2024/02/12 00:29:43;;;;;;;;;;;;;;;15.32;51.36;99970.97;4892812;29;1230;-53
2024/02/12 00:32:10;;;;;;;;;;;;;;;16.61;48.69;99964.91;4903620;29;999;-52
2024/02/12 00:34:36;;;;;;;;;;;;;;;17.07;47.42;99955.69;4900369;29;883;-50
2024/02/12 00:37:01;;;;;;;;;;;;;;;16.22;49.07;99956.69;4890652;29;1991;-49
2024/02/12 00:39:27;;;;;;;;;;;;;;;15.90;50.51;99951.28;4903536;29;990;-52
2024/02/12 00:41:53;;;;;;;;;;;;;;;15.71;50.51;99956.41;4891162;29;1122;-50
2024/02/12 00:44:20;;;;;;;;;;;;;;;15.56;50.64;99954.06;4903678;29;1050;-51
2024/02/12 00:46:46;;;;;;;;;;;;;;;15.41;50.90;99942.91;4893215;29;1121;-50
2024/02/12 00:49:15;;;;;;;;;;;;;;;15.73;50.92;99943.88;4912575;29;2735;-49
2024/02/12 00:51:41;;;;;;;;;;;;;;;17.16;47.55;99935.50;4890573;29;1104;-49
2024/02/12 00:54:12;;;;;;;;;;;;;;;16.83;47.71;99956.91;4903261;29;1006;-51
2024/02/12 00:56:40;;;;;;;;;;;;;;;16.20;49.32;99940.91;4891124;29;1977;-53
2024/02/12 00:59:06;;;;;;;;;;;;;;;15.88;50.09;99933.81;4897655;29;891;-49
2024/02/12 01:01:33;;;;;;;;;;;;;;;15.64;50.86;99938.38;4903179;29;1022;-52
2024/02/12 01:03:59;;;;;;;;;;;;;;;15.51;51.11;99935.03;4903432;29;1033;-50
2024/02/12 01:06:24;;;;;;;;;;;;;;;15.41;51.09;99932.28;4901089;29;905;-49
2024/02/12 01:08:50;;;;;;;;;;;;;;;15.33;51.18;99926.78;4894147;29;1106;-50
2024/02/12 01:11:16;;;;;;;;;;;;;;;16.65;48.80;99925.63;4897101;29;1129;-51
2024/02/12 01:13:41;;;;;;;;;;;;;;;17.21;47.08;99931.47;4903085;29;1057;-49
2024/02/12 01:16:07;;;;;;;;;;;;;;;16.34;49.03;99921.16;4888055;29;1979;-50
2024/02/12 01:18:33;;;;;;;;;;;;;;;15.96;49.87;99922.56;4884174;29;2477;-50
2024/02/12 01:20:59;;;;;;;;;;;;;;;15.66;50.43;99922.34;4898294;29;1015;-52
2024/02/12 01:23:26;;;;;;;;;;;;;;;15.53;50.98;99917.22;4897407;29;857;-51
2024/02/12 01:25:52;;;;;;;;;;;;;;;15.48;50.94;99919.38;4902350;29;1112;-50
2024/02/12 01:28:17;;;;;;;;;;;;;;;15.42;50.79;99918.06;4895272;29;1038;-51
2024/02/12 01:30:43;;;;;;;;;;;;;;;15.56;50.83;99919.59;4896201;29;1134;-50
2024/02/12 01:33:08;;;;;;;;;;;;;;;16.93;47.89;99917.94;4884139;29;1030;-52
2024/02/12 01:35:34;;;;;;;;;;;;;;;16.81;47.96;99903.91;4884575;29;1043;-50
2024/02/12 01:37:59;;;;;;;;;;;;;;;16.13;49.53;99910.56;4903564;29;1927;-50
2024/02/12 01:40:27;;;;;;;;;;;;;;;15.88;50.26;99910.78;4898593;29;1038;-47
2024/02/12 01:42:53;;;;;;;;;;;;;;;15.64;50.35;99906.56;4893422;29;1046;-50
2024/02/12 01:45:23;;;;;;;;;;;;;;;15.53;50.58;99911.91;4898297;29;1126;-50
2024/02/12 01:47:57;;;;;;;;;;;;;;;15.34;51.26;99916.06;4892442;29;2481;-47
2024/02/12 01:50:23;;;;;;;;;;;;;;;16.30;49.43;99910.94;4900009;29;1193;-51
2024/02/12 01:52:48;;;;;;;;;;;;;;;17.27;46.79;99905.31;4902587;29;1102;-52
2024/02/12 01:55:21;;;;;;;;;;;;;;;16.37;48.68;99898.81;4901064;29;1083;-53
2024/02/12 01:57:47;;;;;;;;;;;;;;;15.97;49.71;99901.22;4897537;29;1910;-51
2024/02/12 02:00:14;;;;;;;;;;;;;;;15.76;50.40;99903.84;4895980;29;1126;-49
2024/02/12 02:02:43;;;;;;;;;;;;;;;15.57;50.80;99901.88;4883044;29;1077;-52
2024/02/12 02:05:10;;;;;;;;;;;;;;;15.40;50.98;99896.16;4910235;29;1210;-51
2024/02/12 02:07:36;;;;;;;;;;;;;;;15.58;50.98;99899.09;4883517;29;1036;-50
2024/02/12 02:10:04;;;;;;;;;;;;;;;16.97;47.67;99891.91;4901124;29;1218;-55
2024/02/12 02:12:29;;;;;;;;;;;;;;;16.89;47.45;99895.25;4895277;29;1031;-51
2024/02/12 02:14:55;;;;;;;;;;;;;;;16.16;49.23;99895.19;4897703;29;1102;-50
2024/02/12 02:17:21;;;;;;;;;;;;;;;15.90;50.04;99890.28;4894369;29;1907;-53
2024/02/12 02:19:48;;;;;;;;;;;;;;;15.70;50.34;99888.47;4885828;29;2714;-54
2024/02/12 02:22:17;;;;;;;;;;;;;;;15.53;50.88;99888.88;4895243;29;1122;-50
2024/02/12 02:24:42;;;;;;;;;;;;;;;15.47;50.81;99891.19;4888982;29;1035;-50
2024/02/12 02:27:09;;;;;;;;;;;;;;;15.37;50.97;99894.59;4901525;29;1022;-51
2024/02/12 02:29:37;;;;;;;;;;;;;;;16.24;49.63;99889.25;4890367;29;1215;-51
2024/02/12 02:32:03;;;;;;;;;;;;;;;17.38;46.73;99889.22;4915575;29;1218;-51
2024/02/12 02:34:28;;;;;;;;;;;;;;;16.54;48.51;99886.75;4886943;29;1077;-51
2024/02/12 02:36:54;;;;;;;;;;;;;;;16.01;49.64;99881.47;4895265;29;1981;-51
2024/02/12 02:39:20;;;;;;;;;;;;;;;15.82;50.09;99879.47;4899240;29;1034;-47
2024/02/12 02:41:46;;;;;;;;;;;;;;;15.64;50.38;99879.19;4895521;29;1175;-50
2024/02/12 02:44:14;;;;;;;;;;;;;;;15.52;50.61;99881.91;4901102;29;1021;-51
2024/02/12 02:46:40;;;;;;;;;;;;;;;15.40;50.73;99883.75;4898867;29;1081;-49
2024/02/12 02:49:05;;;;;;;;;;;;;;;15.72;50.85;99879.41;4890297;29;2654;-51
2024/02/12 02:51:31;;;;;;;;;;;;;;;17.10;47.47;99889.06;4894928;29;1125;-50
2024/02/12 02:53:57;;;;;;;;;;;;;;;16.56;48.29;99879.50;4882074;29;1238;-51
2024/02/12 02:56:23;;;;;;;;;;;;;;;16.09;49.24;99877.28;4882949;29;1903;-51
2024/02/12 02:58:49;;;;;;;;;;;;;;;15.73;50.36;99882.91;4889548;29;1179;-47
2024/02/12 03:01:21;;;;;;;;;;;;;;;15.62;50.57;99883.78;4900826;29;1129;-49
2024/02/12 03:03:51;;;;;;;;;;;;;;;15.40;50.80;99886.41;4901316;29;1081;-49
2024/02/12 03:06:17;;;;;;;;;;;;;;;15.33;50.96;99874.59;4900958;29;1030;-50
2024/02/12 03:08:42;;;;;;;;;;;;;;;15.28;50.76;99877.63;4900724;29;1134;-49
2024/02/12 03:11:08;;;;;;;;;;;;;;;16.47;49.04;99870.50;4895526;29;1019;-50
2024/02/12 03:13:36;;;;;;;;;;;;;;;17.02;47.11;99877.25;4891117;29;1111;-50
2024/02/12 03:16:02;;;;;;;;;;;;;;;16.18;49.17;99870.38;4888494;29;1201;-50
2024/02/12 03:18:27;;;;;;;;;;;;;;;15.86;49.98;99874.75;4895029;29;2596;-50
2024/02/12 03:20:53;;;;;;;;;;;;;;;15.62;50.83;99874.03;4897571;29;1035;-51
2024/02/12 03:23:18;;;;;;;;;;;;;;;15.52;50.78;99875.75;4900525;29;1138;-51
2024/02/12 03:25:44;;;;;;;;;;;;;;;15.34;51.30;99872.81;4889728;29;1166;-49
2024/02/12 03:28:09;;;;;;;;;;;;;;;15.28;50.80;99867.03;4889262;29;1174;-51
2024/02/12 03:30:35;;;;;;;;;;;;;;;16.42;49.11;99867.41;4898550;29;1067;-53
2024/02/12 03:33:02;;;;;;;;;;;;;;;17.15;47.09;99856.75;4893538;29;1054;-53
2024/02/12 03:35:28;;;;;;;;;;;;;;;16.25;49.02;99850.28;4896699;29;1174;-52
2024/02/12 03:37:54;;;;;;;;;;;;;;;15.85;49.82;99854.50;4896907;29;1914;-53
2024/02/12 03:40:22;;;;;;;;;;;;;;;15.62;50.77;99844.00;4899928;29;1183;-51
2024/02/12 03:42:49;;;;;;;;;;;;;;;15.50;50.50;99852.00;4896458;29;1113;-55
2024/02/12 03:45:15;;;;;;;;;;;;;;;15.37;50.83;99846.03;4899885;29;1122;-53
2024/02/12 03:47:41;;;;;;;;;;;;;;;16.18;49.45;99834.06;4897258;29;1069;-54
2024/02/12 04:01:03;;;;;;;;;;;;;;;15.45;50.91;99824.22;4901854;29;860;-50
2024/02/12 04:03:29;;;;;;;;;;;;;;;15.29;51.03;99831.63;4904057;29;995;-50
2024/02/12 04:05:54;;;;;;;;;;;;;;;16.03;49.87;99829.09;4904288;29;1058;-49
2024/02/12 04:08:19;;;;;;;;;;;;;;;17.26;47.01;99827.38;4904395;29;1124;-51
2024/02/12 04:10:45;;;;;;;;;;;;;;;16.46;48.57;99820.19;4892767;29;1153;-51
2024/02/12 04:13:12;;;;;;;;;;;;;;;16.03;49.51;99828.25;4885367;29;1046;-51
2024/02/12 04:15:40;;;;;;;;;;;;;;;15.68;50.18;99827.59;4885030;29;1011;-55
2024/02/12 04:18:06;;;;;;;;;;;;;;;15.53;50.65;99827.91;4887754;29;2483;-53
2024/02/12 04:20:33;;;;;;;;;;;;;;;15.41;50.75;99819.16;4895714;29;1114;-51
2024/02/12 04:23:01;;;;;;;;;;;;;;;16.03;49.86;99823.78;4898121;29;1085;-51
2024/02/12 04:25:27;;;;;;;;;;;;;;;17.31;46.72;99824.28;4907700;29;968;-52
2024/02/12 04:27:54;;;;;;;;;;;;;;;16.44;48.61;99830.97;4899400;29;1197;-51
2024/02/12 04:30:25;;;;;;;;;;;;;;;16.00;49.61;99824.03;4897268;29;1006;-47
2024/02/12 04:32:51;;;;;;;;;;;;;;;15.68;50.31;99824.97;4891291;29;1043;-45
2024/02/12 04:35:16;;;;;;;;;;;;;;;15.63;50.30;99833.28;4891700;29;1202;-52
2024/02/12 04:37:45;;;;;;;;;;;;;;;15.47;50.82;99824.91;4891123;29;1907;-49
2024/02/12 04:40:12;;;;;;;;;;;;;;;15.30;50.90;99829.81;4903510;29;1134;-51
2024/02/12 04:42:37;;;;;;;;;;;;;;;16.62;48.57;99830.31;4896723;29;1205;-50
2024/02/12 04:45:03;;;;;;;;;;;;;;;17.24;46.63;99840.81;4884652;29;1074;-47
2024/02/12 04:47:28;;;;;;;;;;;;;;;16.37;48.59;99843.06;4889767;29;1138;-50
2024/02/12 04:49:54;;;;;;;;;;;;;;;15.89;50.03;99842.66;4901328;29;2790;-50
2024/02/12 04:52:20;;;;;;;;;;;;;;;15.72;50.11;99844.94;4896420;29;1129;-51
2024/02/12 04:54:45;;;;;;;;;;;;;;;15.59;50.46;99871.63;4897559;29;1070;-49
2024/02/12 04:57:11;;;;;;;;;;;;;;;15.46;50.83;99866.50;4902881;29;1976;-53
2024/02/12 04:59:37;;;;;;;;;;;;;;;15.43;50.86;99864.94;4900630;29;1082;-50
2024/02/12 05:02:04;;;;;;;;;;;;;;;16.93;47.72;99867.47;4884837;29;1085;-49
2024/02/12 05:04:30;;;;;;;;;;;;;;;16.95;47.25;99843.41;4896878;29;1027;-46
2024/02/12 05:06:55;;;;;;;;;;;;;;;16.12;49.21;99848.69;4902463;29;1038;-50
2024/02/12 05:09:21;;;;;;;;;;;;;;;15.89;49.70;99854.13;4902930;29;1022;-48
2024/02/12 05:11:46;;;;;;;;;;;;;;;15.67;50.40;99847.97;4890312;29;1102;-48
2024/02/12 05:14:12;;;;;;;;;;;;;;;15.52;50.78;99844.78;4914372;29;1083;-52
2024/02/12 05:16:38;;;;;;;;;;;;;;;16.30;49.35;99849.91;4884151;29;1910;-49
2024/02/12 05:24:32;;;;;;;;;;;;;;;15.38;49.55;99853.03;4892994;29;1078;-53
2024/02/12 05:26:57;;;;;;;;;;;;;;;15.45;50.56;99858.69;4884439;29;1194;-49
2024/02/12 05:29:26;;;;;;;;;;;;;;;17.31;47.84;99854.38;4896804;29;1126;-55
2024/02/12 05:31:52;;;;;;;;;;;;;;;15.93;49.30;99852.06;4884627;29;1018;-52
2024/02/12 05:34:21;;;;;;;;;;;;;;;16.64;49.71;99855.78;4901816;29;1083;-50
2024/02/12 05:36:47;;;;;;;;;;;;;;;17.45;46.92;99862.94;4893274;29;1914;-52
2024/02/12 05:39:13;;;;;;;;;;;;;;;16.07;49.29;99850.03;4901360;29;1143;-50
2024/02/12 05:41:38;;;;;;;;;;;;;;;15.67;48.86;99852.41;4902682;29;1031;-50
2024/02/12 05:44:04;;;;;;;;;;;;;;;17.07;48.80;99862.69;4901499;29;1090;-56
2024/02/12 05:46:29;;;;;;;;;;;;;;;16.49;48.82;99868.56;4901808;29;1033;-53
2024/02/12 05:48:57;;;;;;;;;;;;;;;15.87;48.97;99869.31;4897262;29;1955;-53
2024/02/12 05:51:23;;;;;;;;;;;;;;;15.63;48.53;99872.22;4902411;29;1054;-53
2024/02/12 05:53:50;;;;;;;;;;;;;;;16.93;49.09;99877.22;4902026;29;1108;-51
2024/02/12 05:56:16;;;;;;;;;;;;;;;16.64;49.14;99874.34;4902117;29;1985;-54
2024/02/12 05:58:41;;;;;;;;;;;;;;;15.89;49.43;99877.13;4896568;29;1039;-54
2024/02/12 06:01:07;;;;;;;;;;;;;;;16.75;49.73;99880.53;4895171;29;1083;-51
2024/02/12 06:03:32;;;;;;;;;;;;;;;17.40;47.56;99883.78;4902346;29;1054;-55
2024/02/12 06:05:58;;;;;;;;;;;;;;;16.31;48.98;99871.00;4889895;29;1197;-51
2024/02/12 06:08:23;;;;;;;;;;;;;;;15.78;48.86;99873.56;4901654;29;1214;-51
2024/02/12 06:10:49;;;;;;;;;;;;;;;15.65;48.17;99870.25;4902110;29;1077;-44
2024/02/12 06:13:14;;;;;;;;;;;;;;;15.62;47.45;99868.72;4889483;29;1130;-47
2024/02/12 06:15:40;;;;;;;;;;;;;;;17.20;49.03;99870.47;4900083;29;1212;-48
2024/02/12 06:18:06;;;;;;;;;;;;;;;16.31;49.39;99868.34;4883076;29;2112;-47
2024/02/12 06:20:31;;;;;;;;;;;;;;;15.91;48.84;99854.81;4897237;29;1114;-42
2024/02/12 06:22:56;;;;;;;;;;;;;;;15.73;48.97;99848.44;4901197;29;1020;-46
2024/02/12 06:25:24;;;;;;;;;;;;;;;17.41;48.27;99854.38;4890528;29;1153;-49
2024/02/12 06:27:49;;;;;;;;;;;;;;;16.21;49.21;99856.84;4899216;29;1151;-47
2024/02/12 06:30:15;;;;;;;;;;;;;;;15.90;48.64;99862.91;4889877;29;1245;-46
2024/02/12 06:32:41;;;;;;;;;;;;;;;16.68;49.74;99848.38;4882963;29;980;-46
2024/02/12 06:35:06;;;;;;;;;;;;;;;16.79;48.96;99855.38;4882678;29;1039;-46
2024/02/12 06:37:32;;;;;;;;;;;;;;;16.15;49.10;99850.22;4887801;29;1907;-47
2024/02/12 06:40:00;;;;;;;;;;;;;;;15.73;48.54;99833.34;4901355;29;1085;-47
2024/02/12 06:42:30;;;;;;;;;;;;;;;15.99;49.06;99842.75;4901347;29;1134;-47
2024/02/12 06:44:56;;;;;;;;;;;;;;;17.78;47.83;99844.00;4889914;29;1101;-48
2024/02/12 06:47:21;;;;;;;;;;;;;;;16.36;49.40;99834.28;4883089;29;1046;-49
2024/02/12 06:49:47;;;;;;;;;;;;;;;15.96;49.18;99832.38;4883237;29;1268;-49
2024/02/12 06:52:13;;;;;;;;;;;;;;;15.93;47.91;99836.13;4896075;29;1316;-44
2024/02/12 06:54:38;;;;;;;;;;;;;;;17.57;48.34;99839.66;4900072;29;1347;-45
2024/02/12 06:57:04;;;;;;;;;;;;;;;16.69;49.03;99841.22;4899513;29;1907;-49
2024/02/12 06:59:32;;;;;;;;;;;;;;;16.11;48.62;99839.06;4900863;29;1419;-50
2024/02/12 07:01:57;;;;;;;;;;;;;;;15.95;48.27;99844.78;4896439;29;892;-48
2024/02/12 07:04:23;;;;;;;;;;;;;;;15.83;47.86;99846.66;4893956;29;1210;-47
2024/02/12 07:06:51;;;;;;;;;;;;;;;17.58;48.30;99852.00;4897635;29;1050;-45
2024/02/12 07:09:22;;;;;;;;;;;;;;;16.32;49.29;99839.97;4901346;29;1117;-45
2024/02/12 07:11:49;;;;;;;;;;;;;;;15.94;48.55;99848.41;4900855;29;1296;-48
2024/02/12 07:14:14;;;;;;;;;;;;;;;16.96;49.54;99837.97;4890441;29;1146;-44
2024/02/12 07:16:42;;;;;;;;;;;;;;;16.26;49.27;99833.41;4901497;29;1906;-46
2024/02/12 07:19:08;;;;;;;;;;;;;;;15.92;48.83;99831.78;4899662;29;1359;-44
2024/02/12 07:21:33;;;;;;;;;;;;;;;17.37;48.40;99832.56;4900947;29;1136;-45
2024/02/12 07:24:01;;;;;;;;;;;;;;;16.19;49.24;99840.19;4900865;29;976;-47
2024/02/12 07:26:27;;;;;;;;;;;;;;;16.32;49.84;99827.56;4900633;29;925;-46
2024/02/12 07:28:52;;;;;;;;;;;;;;;17.07;48.17;99821.03;4896752;29;1058;-47
2024/02/12 07:31:18;;;;;;;;;;;;;;;16.25;48.76;99808.66;4881938;29;1059;-44
2024/02/12 07:33:43;;;;;;;;;;;;;;;16.07;48.14;99815.56;4882888;29;1062;-50
2024/02/12 07:36:14;;;;;;;;;;;;;;;15.87;47.64;99808.31;4901767;29;1129;-46
2024/02/12 07:38:40;;;;;;;;;;;;;;;15.67;47.35;99815.31;4900439;29;1028;-46
2024/02/12 07:41:05;;;;;;;;;;;;;;;17.28;47.89;99812.13;4900677;29;1402;-44
2024/02/12 07:43:33;;;;;;;;;;;;;;;16.28;48.67;99803.09;4901115;29;1047;-42
2024/02/12 07:46:03;;;;;;;;;;;;;;;15.95;48.04;99793.56;4900710;29;1166;-45
2024/02/12 07:48:28;;;;;;;;;;;;;;;15.77;47.61;99805.59;4899023;29;1085;-49
2024/02/12 07:50:56;;;;;;;;;;;;;;;15.89;48.62;99801.06;4899826;29;927;-46
2024/02/12 07:53:25;;;;;;;;;;;;;;;17.67;47.70;99800.59;4900421;29;1358;-43
2024/02/12 07:55:53;;;;;;;;;;;;;;;16.36;49.05;99802.44;4900551;29;1331;-43
2024/02/12 07:58:20;;;;;;;;;;;;;;;16.01;48.66;99795.72;4900607;29;1976;-45
2024/02/12 08:00:48;;;;;;;;;;;;;;;15.68;47.82;99798.44;4915179;29;1403;-45
2024/02/12 08:03:20;;;;;;;;;;;;;;;16.63;49.02;99797.50;4900411;29;1323;-43
2024/02/12 08:05:45;;;;;;;;;;;;;;;18.14;46.75;99787.47;4900904;29;1356;-46
2024/02/12 08:08:11;;;;;;;;;;;;;;;16.62;48.67;99783.34;4901734;29;1154;-46
2024/02/12 08:10:48;;;;;;;;;;;;;;;16.13;48.70;99792.00;4904544;29;1355;-46
2024/02/12 08:13:14;;;;;;;;;;;;;;;15.97;47.65;99794.25;4903549;29;1273;-46
2024/02/12 08:15:39;;;;;;;;;;;;;;;15.79;47.32;99787.75;4904154;29;1177;-46
2024/02/12 08:18:08;;;;;;;;;;;;;;;16.13;48.48;99792.00;4918057;29;1914;-44
2024/02/12 08:20:34;;;;;;;;;;;;;;;17.20;48.23;99788.91;4904047;29;1371;-46
2024/02/12 08:22:59;;;;;;;;;;;;;;;16.16;48.97;99797.03;4903840;29;1316;-43
2024/02/12 08:25:27;;;;;;;;;;;;;;;15.87;48.44;99797.72;4903482;29;1304;-43
2024/02/12 08:27:53;;;;;;;;;;;;;;;17.03;48.66;99806.38;4904540;29;1304;-44
2024/02/12 08:30:19;;;;;;;;;;;;;;;16.69;48.71;99806.72;4904022;29;1331;-46
2024/02/12 08:32:44;;;;;;;;;;;;;;;16.17;48.67;99805.84;4903207;29;1189;-43
2024/02/12 08:35:10;;;;;;;;;;;;;;;15.93;47.66;99811.41;4892558;29;1075;-44
2024/02/12 08:37:36;;;;;;;;;;;;;;;15.76;47.29;99797.78;4902175;29;1988;-45
2024/02/12 08:40:05;;;;;;;;;;;;;;;15.69;46.20;99788.66;4904044;29;1484;-44
2024/02/12 08:42:30;;;;;;;;;;;;;;;15.57;46.12;99794.03;4902376;29;1150;-47
2024/02/12 08:44:56;;;;;;;;;;;;;;;16.89;48.55;99797.81;4903372;29;1176;-46
2024/02/12 08:47:21;;;;;;;;;;;;;;;16.68;48.43;99776.69;4903338;29;1273;-44
2024/02/12 08:49:47;;;;;;;;;;;;;;;15.98;48.79;99780.88;4897337;29;1173;-44
2024/02/12 08:52:14;;;;;;;;;;;;;;;15.77;47.73;99772.94;4901178;29;1146;-45
2024/02/12 08:54:40;;;;;;;;;;;;;;;15.58;47.34;99763.06;4903363;29;1390;-46
2024/02/12 08:57:11;;;;;;;;;;;;;;;16.83;48.52;99776.28;4903475;29;1952;-45
2024/02/12 08:59:38;;;;;;;;;;;;;;;16.91;48.64;99762.28;4899187;29;1209;-44
2024/02/12 09:02:06;;;;;;;;;;;;;;;16.11;48.76;99750.66;4889115;29;1514;-42
2024/02/12 09:04:31;;;;;;;;;;;;;;;15.82;48.05;99744.22;4895833;29;1134;-44
2024/02/12 09:06:57;;;;;;;;;;;;;;;16.62;48.81;99740.03;4902545;29;1378;-45
2024/02/12 09:09:22;;;;;;;;;;;;;;;17.13;47.89;99739.97;4903429;29;1137;-45
2024/02/12 09:11:48;;;;;;;;;;;;;;;16.18;49.01;99732.38;4903273;29;1600;-43
2024/02/12 09:14:16;;;;;;;;;;;;;;;15.88;47.86;99713.69;4902743;29;1351;-47
2024/02/12 09:16:42;;;;;;;;;;;;;;;15.82;46.94;99716.84;4902959;29;1898;-46
2024/02/12 09:19:08;;;;;;;;;;;;;;;15.63;46.91;99700.72;4901495;29;1457;-46
2024/02/12 09:21:33;;;;;;;;;;;;;;;17.29;48.04;99702.16;4902834;29;1449;-47
2024/02/12 09:23:59;;;;;;;;;;;;;;;16.79;48.57;99698.69;4902743;29;1276;-47
2024/02/12 09:26:25;;;;;;;;;;;;;;;16.24;48.28;99700.00;4902451;29;1064;-46
2024/02/12 09:28:52;;;;;;;;;;;;;;;15.93;48.06;99700.03;4902572;29;1465;-48
2024/02/12 09:31:17;;;;;;;;;;;;;;;15.78;47.38;99693.25;4903265;29;1426;-48
2024/02/12 09:33:45;;;;;;;;;;;;;;;16.49;48.58;99693.34;4902402;29;1188;-46
2024/02/12 09:36:11;;;;;;;;;;;;;;;17.19;47.69;99690.72;4902231;29;1105;-49
2024/02/12 09:38:36;;;;;;;;;;;;;;;16.28;48.79;99669.56;4894923;29;1993;-47
2024/02/12 09:41:02;;;;;;;;;;;;;;;16.86;49.20;99672.41;4902725;29;1343;-48
2024/02/12 09:43:27;;;;;;;;;;;;;;;16.67;48.70;99667.91;4901297;29;1174;-46
2024/02/12 09:45:54;;;;;;;;;;;;;;;16.18;48.31;99658.09;4900006;29;1308;-44
2024/02/12 09:48:20;;;;;;;;;;;;;;;15.95;47.68;99653.81;4901879;29;1154;-48
2024/02/12 09:50:47;;;;;;;;;;;;;;;15.89;47.08;99646.41;4892610;29;1281;-45
2024/02/12 09:53:16;;;;;;;;;;;;;;;17.31;48.01;99663.00;4902272;29;1343;-45
2024/02/12 09:55:42;;;;;;;;;;;;;;;16.69;48.46;99665.97;4902300;29;1355;-43
2024/02/12 09:58:08;;;;;;;;;;;;;;;16.14;48.40;99674.28;4897887;29;1910;-45
2024/02/12 10:00:35;;;;;;;;;;;;;;;15.96;47.62;99676.72;4902159;29;1251;-45
2024/02/12 10:03:01;;;;;;;;;;;;;;;15.78;46.98;99661.44;4901451;29;1197;-45
2024/02/12 10:05:26;;;;;;;;;;;;;;;17.54;47.57;99657.31;4890049;29;1038;-46
2024/02/12 10:07:52;;;;;;;;;;;;;;;16.36;48.39;99659.13;4897791;29;1031;-46
2024/02/12 10:10:17;;;;;;;;;;;;;;;16.13;47.63;99640.75;4890757;29;1122;-44
2024/02/12 10:12:43;;;;;;;;;;;;;;;15.82;47.65;99634.63;4895648;29;1182;-45
2024/02/12 10:15:13;;;;;;;;;;;;;;;17.38;47.78;99632.19;4893920;29;1054;-44
2024/02/12 10:17:39;;;;;;;;;;;;;;;16.33;48.45;99638.13;4891999;29;1895;-46
2024/02/12 10:20:09;;;;;;;;;;;;;;;16.05;48.04;99621.22;4898935;29;1401;-45
2024/02/12 10:22:40;;;;;;;;;;;;;;;15.88;47.41;99604.94;4891673;29;1108;-43
2024/02/12 10:25:06;;;;;;;;;;;;;;;16.21;48.00;99580.88;4895843;29;1087;-47
2024/02/12 10:27:32;;;;;;;;;;;;;;;16.87;47.78;99570.47;4882808;29;899;-45
2024/02/12 10:29:58;;;;;;;;;;;;;;;16.10;48.00;99569.41;4892269;29;1058;-49
2024/02/12 10:32:24;;;;;;;;;;;;;;;15.91;47.17;99572.84;4901066;29;1073;-46
2024/02/12 10:34:50;;;;;;;;;;;;;;;17.29;47.47;99577.25;4901769;29;1170;-45
2024/02/12 10:37:17;;;;;;;;;;;;;;;16.69;47.88;99596.91;4898357;29;1906;-45
2024/02/12 10:39:42;;;;;;;;;;;;;;;16.24;47.75;99623.88;4910712;29;891;-49
2024/02/12 10:42:09;;;;;;;;;;;;;;;16.10;46.84;99633.06;4901401;29;1121;-46
2024/02/12 10:44:34;;;;;;;;;;;;;;;16.23;47.64;99616.88;4891047;29;1122;-46
2024/02/12 10:47:00;;;;;;;;;;;;;;;17.75;46.24;99625.16;4898840;29;1265;-48
2024/02/12 10:49:26;;;;;;;;;;;;;;;16.47;48.18;99617.47;4913452;29;1194;-44
2024/02/12 10:51:54;;;;;;;;;;;;;;;16.22;47.58;99595.81;4915970;29;1316;-40
2024/02/12 10:54:22;;;;;;;;;;;;;;;15.93;47.18;99599.22;4896906;29;1176;-43
2024/02/12 10:56:48;;;;;;;;;;;;;;;17.58;46.82;99586.06;4894192;29;1979;-47
2024/02/12 10:59:14;;;;;;;;;;;;;;;16.45;47.86;99600.88;4880350;29;1157;-43
2024/02/12 11:01:39;;;;;;;;;;;;;;;16.12;47.39;99588.69;4884530;29;1007;-47
2024/02/12 11:04:06;;;;;;;;;;;;;;;15.94;46.61;99564.63;4887501;29;1337;-45
2024/02/12 11:06:39;;;;;;;;;;;;;;;15.79;46.66;99569.47;4900481;29;1090;-43
2024/02/12 11:09:06;;;;;;;;;;;;;;;17.28;47.02;99583.56;4899528;29;1093;-44
2024/02/12 11:11:33;;;;;;;;;;;;;;;16.60;47.61;99577.38;4898315;29;1049;-46
2024/02/12 11:14:03;;;;;;;;;;;;;;;16.13;47.65;99570.97;4882114;29;1034;-44
2024/02/12 11:16:30;;;;;;;;;;;;;;;15.89;47.23;99569.47;4884265;29;1910;-48
2024/02/12 11:18:59;;;;;;;;;;;;;;;17.45;46.71;99570.47;4882525;29;1138;-48
2024/02/12 11:21:31;;;;;;;;;;;;;;;16.38;47.90;99552.81;4886027;29;1173;-44
2024/02/12 11:24:10;;;;;;;;;;;;;;;16.08;47.00;99573.19;4890224;29;1071;-46
2024/02/12 11:26:39;;;;;;;;;;;;;;;15.90;46.54;99587.06;4882538;29;1125;-44
2024/02/12 11:29:08;;;;;;;;;;;;;;;15.76;46.39;99577.69;4883196;29;1059;-47
2024/02/12 11:31:34;;;;;;;;;;;;;;;17.48;46.47;99568.31;4899346;29;1400;-46
2024/02/12 11:34:00;;;;;;;;;;;;;;;16.52;47.63;99568.28;4900966;29;1122;-44
2024/02/12 11:36:27;;;;;;;;;;;;;;;16.14;47.32;99568.16;4892571;29;1974;-45
2024/02/12 11:38:53;;;;;;;;;;;;;;;15.96;46.70;99553.88;4898520;29;1307;-47
2024/02/12 11:41:18;;;;;;;;;;;;;;;15.78;46.70;99554.53;4901269;29;1126;-48
2024/02/12 11:43:46;;;;;;;;;;;;;;;16.77;47.13;99554.56;4903206;29;1058;-47
2024/02/12 11:46:13;;;;;;;;;;;;;;;17.28;46.27;99553.47;4904939;29;1196;-47
2024/02/12 11:48:38;;;;;;;;;;;;;;;16.28;47.72;99555.47;4905129;29;1479;-46
2024/02/12 11:51:04;;;;;;;;;;;;;;;16.00;47.34;99557.94;4900149;29;1174;-45
2024/02/12 11:53:30;;;;;;;;;;;;;;;15.93;46.59;99572.72;4901514;29;1210;-44
2024/02/12 11:55:56;;;;;;;;;;;;;;;16.84;47.29;99554.81;4894485;29;1243;-48
2024/02/12 11:58:21;;;;;;;;;;;;;;;17.19;46.63;99565.81;4911538;29;2032;-44
2024/02/12 12:00:47;;;;;;;;;;;;;;;16.38;47.16;99550.16;4893549;29;1087;-47
2024/02/12 12:03:12;;;;;;;;;;;;;;;16.07;46.95;99537.00;4891664;29;1146;-44
2024/02/12 12:05:40;;;;;;;;;;;;;;;16.15;47.44;99547.75;4894281;29;1027;-44
2024/02/12 12:08:10;;;;;;;;;;;;;;;18.11;45.58;99533.94;4900374;29;1050;-42
2024/02/12 12:10:36;;;;;;;;;;;;;;;16.70;47.43;99532.22;4903001;29;1090;-44
2024/02/12 12:13:01;;;;;;;;;;;;;;;16.26;47.32;99533.53;4899587;29;1085;-48
2024/02/12 12:15:28;;;;;;;;;;;;;;;16.02;46.77;99540.06;4891219;29;1070;-43
2024/02/12 12:17:53;;;;;;;;;;;;;;;16.00;46.00;99571.19;4903025;29;1910;-45
2024/02/12 12:20:19;;;;;;;;;;;;;;;15.93;45.83;99572.72;4897482;29;1146;-43
2024/02/12 12:22:45;;;;;;;;;;;;;;;17.67;46.20;99617.09;4901813;29;1070;-42
2024/02/12 12:25:11;;;;;;;;;;;;;;;16.44;47.55;99588.56;4902561;29;1023;-41
2024/02/12 12:27:37;;;;;;;;;;;;;;;16.23;46.85;99584.22;4903301;29;1126;-46
2024/02/12 12:30:24;;;;;;;;;;;;;;;15.94;46.62;99611.50;4904149;29;1194;-45
2024/02/12 12:32:49;;;;;;;;;;;;;;;17.32;46.83;99589.38;4903340;29;1880;-47
2024/02/12 12:35:18;;;;;;;;;;;;;;;17.16;46.52;99603.28;4902398;29;1262;-48
2024/02/12 12:37:45;;;;;;;;;;;;;;;16.47;47.25;99601.53;4890776;29;1969;-44
2024/02/12 12:40:19;;;;;;;;;;;;;;;16.26;47.28;99590.09;4903389;29;1062;-48
2024/02/12 12:42:49;;;;;;;;;;;;;;;17.69;45.79;99585.88;4897483;29;1025;-46
2024/02/12 12:45:15;;;;;;;;;;;;;;;16.45;47.17;99575.13;4886875;29;1158;-47
2024/02/12 12:47:41;;;;;;;;;;;;;;;16.23;46.79;99569.13;4895566;29;1189;-43
2024/02/12 12:50:10;;;;;;;;;;;;;;;16.08;46.42;99565.22;4898078;29;1149;-46
2024/02/12 12:52:35;;;;;;;;;;;;;;;15.94;45.74;99561.13;4890426;29;934;-46
2024/02/12 12:55:03;;;;;;;;;;;;;;;15.77;45.80;99585.50;4899399;29;1066;-46
2024/02/12 12:57:28;;;;;;;;;;;;;;;15.61;45.45;99591.34;4903076;29;1907;-42
2024/02/12 12:59:54;;;;;;;;;;;;;;;16.06;46.43;99581.28;4892194;29;1463;-49
2024/02/12 13:02:20;;;;;;;;;;;;;;;17.82;45.83;99597.97;4900711;29;1170;-47
2024/02/12 13:04:46;;;;;;;;;;;;;;;16.51;47.35;99592.34;4899388;29;840;-49
2024/02/12 13:07:12;;;;;;;;;;;;;;;16.22;47.19;99593.16;4899529;29;1090;-48
2024/02/12 13:09:38;;;;;;;;;;;;;;;15.97;46.65;99595.31;4884715;29;1063;-45